N1977 KO54-KF62
Flight info
| Callsign | N1977 |
|---|---|
| Flight time | N/A |
| Altitude | 8000 |
| Route | 404335N1230258W 404553N1230720W 404352N1231341W 404518N1231649W 404749N1232228W 404723N1232717W 405111N1232920W 405322N1233248W 405311N1233526W 404629N1233320W 403922N1232948W 403739N1232526W 403542N1231627W |
| Aircraft | C208/L-SDFGR/C |
Departure
| Time | 2026-04-24 19:09 |
|---|---|
| Airport | Lonnie Pool Field Weaverville Airport (KO54) |
Arrival
| Time | N/A |
|---|---|
| Airport | KF62 |
| Time | Latitude | Longitude | Altitude | Speed | Heading |
|---|---|---|---|---|---|
| 2026-04-24 19:05 | 40.74804 | -122.92253 | 2329 ft | 0 kts | 104° |
| 2026-04-24 19:06 | 40.74804 | -122.92222 | 2332 ft | 11 kts | 57° |
| 2026-04-24 19:06 | 40.74838 | -122.92182 | 2341 ft | 0 kts | 24° |
| 2026-04-24 19:06 | 40.74852 | -122.92178 | 2343 ft | 8 kts | 1° |
| 2026-04-24 19:06 | 40.74940 | -122.92160 | 2351 ft | 14 kts | 17° |
| 2026-04-24 19:07 | 40.75037 | -122.92123 | 2361 ft | 16 kts | 15° |
| 2026-04-24 19:07 | 40.75156 | -122.92090 | 2369 ft | 20 kts | 344° |
| 2026-04-24 19:07 | 40.75200 | -122.92083 | 2375 ft | 0 kts | 121° |
| 2026-04-24 19:07 | 40.75177 | -122.92075 | 2375 ft | 0 kts | 202° |
| 2026-04-24 19:08 | 40.75118 | -122.92092 | 2369 ft | 28 kts | 195° |
| 2026-04-24 19:08 | 40.74748 | -122.92226 | 2330 ft | 81 kts | 194° |
| 2026-04-24 19:08 | 40.74096 | -122.92458 | 2386 ft | 106 kts | 193° |
| 2026-04-24 19:08 | 40.73347 | -122.92643 | 2586 ft | 114 kts | 186° |
| 2026-04-24 19:09 | 40.72563 | -122.92835 | 2843 ft | 116 kts | 191° |
| 2026-04-24 19:09 | 40.71763 | -122.93077 | 3053 ft | 122 kts | 202° |
| 2026-04-24 19:09 | 40.71252 | -122.93932 | 3239 ft | 126 kts | 263° |
| 2026-04-24 19:09 | 40.71461 | -122.95028 | 3458 ft | 127 kts | 300° |
| 2026-04-24 19:10 | 40.72027 | -122.95922 | 3686 ft | 128 kts | 313° |
| 2026-04-24 19:10 | 40.72640 | -122.96773 | 3917 ft | 128 kts | 313° |
| 2026-04-24 19:10 | 40.73257 | -122.97623 | 4145 ft | 129 kts | 313° |
| 2026-04-24 19:10 | 40.73806 | -122.98585 | 4400 ft | 132 kts | 289° |
| 2026-04-24 19:11 | 40.73864 | -122.99865 | 4468 ft | 154 kts | 260° |
| 2026-04-24 19:11 | 40.73739 | -123.01318 | 4476 ft | 167 kts | 268° |
| 2026-04-24 19:11 | 40.73736 | -123.02878 | 4459 ft | 171 kts | 269° |
| 2026-04-24 19:11 | 40.73726 | -123.04451 | 4442 ft | 174 kts | 268° |
| 2026-04-24 19:12 | 40.73715 | -123.06012 | 4450 ft | 174 kts | 271° |
| 2026-04-24 19:12 | 40.73940 | -123.07579 | 4447 ft | 173 kts | 283° |
| 2026-04-24 19:12 | 40.74360 | -123.09070 | 4451 ft | 174 kts | 299° |
| 2026-04-24 19:12 | 40.75009 | -123.10409 | 4446 ft | 173 kts | 302° |
| 2026-04-24 19:13 | 40.75441 | -123.11281 | 4450 ft | 171 kts | 302° |
| 2026-04-24 19:13 | 40.76251 | -123.13064 | 4440 ft | 167 kts | 290° |
| 2026-04-24 19:13 | 40.76366 | -123.14529 | 4457 ft | 164 kts | 252° |
| 2026-04-24 19:13 | 40.75707 | -123.15737 | 4464 ft | 164 kts | 223° |
| 2026-04-24 19:14 | 40.74980 | -123.16908 | 4454 ft | 167 kts | 240° |
| 2026-04-24 19:14 | 40.74517 | -123.18277 | 4445 ft | 164 kts | 248° |
| 2026-04-24 19:14 | 40.74103 | -123.19650 | 4450 ft | 159 kts | 247° |
| 2026-04-24 19:14 | 40.73679 | -123.20974 | 4434 ft | 155 kts | 246° |
| 2026-04-24 19:15 | 40.73343 | -123.22294 | 4438 ft | 151 kts | 264° |
| 2026-04-24 19:15 | 40.73493 | -123.23635 | 4439 ft | 149 kts | 291° |
| 2026-04-24 19:15 | 40.74012 | -123.24800 | 4462 ft | 148 kts | 301° |
| 2026-04-24 19:15 | 40.74547 | -123.25978 | 4460 ft | 154 kts | 299° |
| 2026-04-24 19:16 | 40.75661 | -123.28412 | 4450 ft | 155 kts | 300° |
| 2026-04-24 19:16 | 40.76208 | -123.29630 | 4445 ft | 152 kts | 299° |
| 2026-04-24 19:16 | 40.76730 | -123.30816 | 4447 ft | 150 kts | 299° |
| 2026-04-24 19:17 | 40.77251 | -123.31990 | 4447 ft | 147 kts | 299° |
| 2026-04-24 19:17 | 40.77769 | -123.33152 | 4452 ft | 148 kts | 300° |
| 2026-04-24 19:17 | 40.78290 | -123.34322 | 4453 ft | 148 kts | 299° |
| 2026-04-24 19:17 | 40.78809 | -123.35499 | 4465 ft | 149 kts | 299° |
| 2026-04-24 19:18 | 40.79335 | -123.36672 | 4461 ft | 148 kts | 299° |
| 2026-04-24 19:18 | 40.79631 | -123.37953 | 4464 ft | 148 kts | 269° |
| 2026-04-24 19:18 | 40.79509 | -123.39294 | 4465 ft | 146 kts | 262° |
| 2026-04-24 19:18 | 40.79396 | -123.40612 | 4463 ft | 146 kts | 263° |
| 2026-04-24 19:19 | 40.79278 | -123.41949 | 4466 ft | 147 kts | 263° |
| 2026-04-24 19:19 | 40.79155 | -123.43291 | 4470 ft | 147 kts | 263° |
| 2026-04-24 19:19 | 40.79202 | -123.44627 | 4454 ft | 147 kts | 288° |
| 2026-04-24 19:19 | 40.79756 | -123.45755 | 4461 ft | 149 kts | 316° |
| 2026-04-24 19:20 | 40.80656 | -123.46412 | 4461 ft | 149 kts | 338° |
| 2026-04-24 19:20 | 40.81621 | -123.46915 | 4466 ft | 150 kts | 336° |
| 2026-04-24 19:20 | 40.82586 | -123.47440 | 4472 ft | 150 kts | 336° |
| 2026-04-24 19:20 | 40.83558 | -123.47966 | 4474 ft | 151 kts | 336° |
| 2026-04-24 19:21 | 40.84517 | -123.48482 | 4468 ft | 151 kts | 336° |
| 2026-04-24 19:21 | 40.85432 | -123.49124 | 4471 ft | 149 kts | 316° |
| 2026-04-24 19:21 | 40.86086 | -123.50171 | 4470 ft | 148 kts | 307° |
| 2026-04-24 19:21 | 40.86746 | -123.51210 | 4477 ft | 148 kts | 309° |
| 2026-04-24 19:22 | 40.87186 | -123.51898 | 4476 ft | 148 kts | 308° |
| 2026-04-24 19:22 | 40.88073 | -123.53305 | 4481 ft | 149 kts | 308° |
| 2026-04-24 19:22 | 40.88694 | -123.54397 | 4483 ft | 148 kts | 295° |
| 2026-04-24 19:22 | 40.88867 | -123.55717 | 4484 ft | 147 kts | 265° |
| 2026-04-24 19:23 | 40.88642 | -123.57025 | 4492 ft | 146 kts | 243° |
| 2026-04-24 19:23 | 40.87966 | -123.58010 | 4488 ft | 147 kts | 213° |
| 2026-04-24 19:23 | 40.87022 | -123.58426 | 4494 ft | 147 kts | 184° |
| 2026-04-24 19:23 | 40.86009 | -123.58217 | 4494 ft | 148 kts | 166° |
| 2026-04-24 19:24 | 40.85000 | -123.57891 | 4484 ft | 149 kts | 167° |
| 2026-04-24 19:24 | 40.83992 | -123.57581 | 4483 ft | 149 kts | 167° |
| 2026-04-24 19:24 | 40.82989 | -123.57267 | 4484 ft | 148 kts | 167° |
| 2026-04-24 19:24 | 40.81990 | -123.56954 | 4486 ft | 148 kts | 167° |
| 2026-04-24 19:25 | 40.80989 | -123.56640 | 4486 ft | 148 kts | 167° |
| 2026-04-24 19:25 | 40.79988 | -123.56325 | 4486 ft | 148 kts | 167° |
| 2026-04-24 19:25 | 40.78995 | -123.56013 | 4486 ft | 149 kts | 167° |
| 2026-04-24 19:25 | 40.77986 | -123.55700 | 4484 ft | 149 kts | 167° |
| 2026-04-24 19:26 | 40.76998 | -123.55313 | 4485 ft | 148 kts | 159° |
| 2026-04-24 19:26 | 40.76081 | -123.54841 | 4487 ft | 150 kts | 160° |
| 2026-04-24 19:26 | 40.75102 | -123.54359 | 4492 ft | 151 kts | 160° |
| 2026-04-24 19:26 | 40.74122 | -123.53872 | 4484 ft | 150 kts | 160° |
| 2026-04-24 19:27 | 40.73143 | -123.53384 | 4480 ft | 150 kts | 160° |
| 2026-04-24 19:27 | 40.72165 | -123.52899 | 4481 ft | 150 kts | 160° |
| 2026-04-24 19:27 | 40.71193 | -123.52415 | 4479 ft | 149 kts | 160° |
| 2026-04-24 19:27 | 40.70237 | -123.51941 | 4478 ft | 149 kts | 160° |
| 2026-04-24 19:28 | 40.69268 | -123.51463 | 4472 ft | 149 kts | 160° |
| 2026-04-24 19:28 | 40.68302 | -123.50983 | 4471 ft | 148 kts | 160° |
| 2026-04-24 19:28 | 40.67339 | -123.50504 | 4465 ft | 149 kts | 160° |
| 2026-04-24 19:28 | 40.66361 | -123.50022 | 4360 ft | 147 kts | 160° |
| 2026-04-24 19:29 | 40.65043 | -123.48187 | 4138 ft | 140 kts | 116° |
| 2026-04-24 19:29 | 40.64599 | -123.47051 | 4031 ft | 139 kts | 118° |
| 2026-04-24 19:29 | 40.64147 | -123.45922 | 3915 ft | 139 kts | 118° |
| 2026-04-24 19:30 | 40.63705 | -123.44788 | 3804 ft | 139 kts | 118° |
| 2026-04-24 19:30 | 40.63272 | -123.43684 | 3700 ft | 137 kts | 117° |
| 2026-04-24 19:30 | 40.62840 | -123.42571 | 3592 ft | 138 kts | 117° |
| 2026-04-24 19:30 | 40.62533 | -123.41373 | 3481 ft | 138 kts | 105° |
| 2026-04-24 19:31 | 40.62281 | -123.40181 | 3467 ft | 133 kts | 106° |
| 2026-04-24 19:31 | 40.62029 | -123.39022 | 3461 ft | 131 kts | 107° |
| 2026-04-24 19:31 | 40.61783 | -123.37864 | 3459 ft | 132 kts | 103° |
| 2026-04-24 19:31 | 40.61735 | -123.36670 | 3450 ft | 129 kts | 90° |
| 2026-04-24 19:32 | 40.61745 | -123.35493 | 3446 ft | 128 kts | 86° |
| 2026-04-24 19:32 | 40.61812 | -123.34307 | 3448 ft | 127 kts | 85° |
| 2026-04-24 19:32 | 40.61875 | -123.33168 | 3447 ft | 126 kts | 84° |
| 2026-04-24 19:32 | 40.62062 | -123.32036 | 3448 ft | 127 kts | 74° |
| 2026-04-24 19:33 | 40.62255 | -123.30916 | 3443 ft | 124 kts | 81° |
| 2026-04-24 19:33 | 40.62099 | -123.29836 | 3446 ft | 121 kts | 113° |
| 2026-04-24 19:33 | 40.61632 | -123.28910 | 3434 ft | 123 kts | 134° |
| 2026-04-24 19:33 | 40.61042 | -123.28118 | 3455 ft | 122 kts | 140° |
| 2026-04-24 19:34 | 40.60330 | -123.27473 | 3457 ft | 126 kts | 151° |
| 2026-04-24 19:34 | 40.59645 | -123.26758 | 3447 ft | 124 kts | 146° |
| 2026-04-24 19:34 | 40.58941 | -123.26154 | 3452 ft | 122 kts | 134° |
| 2026-04-24 19:34 | 40.58455 | -123.25260 | 3496 ft | 121 kts | 124° |
| 2026-04-24 19:35 | 40.57962 | -123.24332 | 3460 ft | 123 kts | 126° |
| 2026-04-24 19:35 | 40.57487 | -123.23418 | 3448 ft | 121 kts | 124° |
| 2026-04-24 19:35 | 40.57018 | -123.22497 | 3461 ft | 120 kts | 123° |
| 2026-04-24 19:35 | 40.56423 | -123.21786 | 3435 ft | 113 kts | 159° |
| 2026-04-24 19:36 | 40.55656 | -123.21661 | 3440 ft | 112 kts | 191° |
| 2026-04-24 19:36 | 40.54975 | -123.22095 | 3442 ft | 112 kts | 224° |
| 2026-04-24 19:36 | 40.54591 | -123.22926 | 3438 ft | 105 kts | 255° |
| 2026-04-24 19:36 | 40.54578 | -123.23833 | 3425 ft | 96 kts | 291° |
| 2026-04-24 19:37 | 40.55146 | -123.24034 | 3319 ft | 107 kts | 36° |
| 2026-04-24 19:37 | 40.55222 | -123.23079 | 3056 ft | 123 kts | 130° |
| 2026-04-24 19:37 | 40.54488 | -123.22667 | 3026 ft | 114 kts | 150° |
| 2026-04-24 19:37 | 40.54294 | -123.21703 | 2876 ft | 123 kts | 63° |
| 2026-04-24 19:38 | 40.54642 | -123.20758 | 2743 ft | 110 kts | 85° |
| 2026-04-24 19:38 | 40.54653 | -123.19821 | 2609 ft | 99 kts | 88° |
| 2026-04-24 19:38 | 40.54675 | -123.18990 | 2442 ft | 87 kts | 88° |
| 2026-04-24 19:38 | 40.54694 | -123.18264 | 2367 ft | 69 kts | 86° |
| 2026-04-24 19:39 | 40.54704 | -123.17797 | 2361 ft | 25 kts | 88° |
| 2026-04-24 19:39 | 40.54710 | -123.17575 | 2361 ft | 30 kts | 88° |
| 2026-04-24 19:39 | 40.54722 | -123.17290 | 2364 ft | 15 kts | 85° |
| 2026-04-24 19:39 | 40.54721 | -123.17272 | 2363 ft | 4 kts | 278° |
| 2026-04-24 19:40 | 40.54717 | -123.17386 | 2366 ft | 21 kts | 270° |
| 2026-04-24 19:40 | 40.54707 | -123.17622 | 2361 ft | 18 kts | 264° |
| 2026-04-24 19:40 | 40.54748 | -123.17767 | 2359 ft | 11 kts | 358° |
| 2026-04-24 19:40 | 40.54780 | -123.17786 | 2358 ft | 8 kts | 265° |
| 2026-04-24 19:41 | 40.54795 | -123.17865 | 2361 ft | 13 kts | 357° |
| 2026-04-24 19:41 | 40.54799 | -123.17805 | 2360 ft | 3 kts | 184° |
| 2026-04-24 19:41 | 40.54795 | -123.17806 | 2361 ft | 0 kts | 182° |